This is the latest recevied weather packets stored in our database for station/object N7CW. If no packets are shown the sender has not sent any weather packets the latest 1 day(s).
| Time | Temp. | Humidity | Pressure | Rain* | Wind** | Luminosity | Snow |
|---|---|---|---|---|---|---|---|
| 1778096326 | 17.78° C | 30% | 1018.5 hPa | 0 mm | - | 826 W/m² | - |
| 1778095719 | 17.78° C | 30% | 1018.6 hPa | 0 mm | - | 831 W/m² | - |
| 1778095113 | 17.22° C | 30% | 1018.6 hPa | 0 mm | - | 829 W/m² | - |
| 1778092688 | 16.11° C | 30% | 1018.7 hPa | 0 mm | - | 816 W/m² | - |
| 1778091475 | 17.22° C | 30% | 1018.5 hPa | 0 mm | - | 796 W/m² | - |
| 1778089959 | 16.67° C | 32% | 1018.7 hPa | 0 mm | - | 767 W/m² | - |
| 1778088141 | 15° C | 33% | 1018.6 hPa | 0 mm | - | 719 W/m² | - |
| 1778087536 | 14.44° C | 36% | 1018.5 hPa | 0 mm | - | 697 W/m² | - |
| 1778086930 | 15° C | 35% | 1018.5 hPa | 0 mm | - | 677 W/m² | - |
| 1778086022 | 14.44° C | 35% | 1018.2 hPa | 0 mm | - | 642 W/m² | - |
| 1778084807 | 13.33° C | 38% | 1018.5 hPa | 0 mm | - | 587 W/m² | - |
| 1778083596 | 12.78° C | 38% | 1018.1 hPa | 0 mm | - | 525 W/m² | - |
| 1778080036 | 11.67° C | 42% | 1017.8 hPa | 0 mm | - | 342 W/m² | - |
| 1778079127 | 11.67° C | 41% | 1017.9 hPa | 0 mm | - | 289 W/m² | - |
| 1778078521 | 11.11° C | 40% | 1017.7 hPa | 0 mm | - | 256 W/m² | - |
| 1778078219 | 11.11° C | 41% | 1017.7 hPa | 0 mm | - | 239 W/m² | - |
| 1778077615 | 11.11° C | 41% | 1017.5 hPa | 0 mm | - | 206 W/m² | - |
| 1778076405 | 9.44° C | 49% | 1017.7 hPa | 0 mm | - | 142 W/m² | - |
| 1778076102 | 9.44° C | 51% | 1017.7 hPa | 0 mm | - | 128 W/m² | - |
| 1778075799 | 9.44° C | 51% | 1017.5 hPa | 0 mm | - | 112 W/m² | - |
| 1778072163 | 3.89° C | 68% | 1017 hPa | 0 mm | - | 15 W/m² | - |
| 1778071860 | 3.33° C | 69% | 1016.7 hPa | 0 mm | - | 12 W/m² | - |
| 1778070651 | 5° C | 65% | 1016.6 hPa | 0 mm | - | 2 W/m² | - |
| 1778070347 | 5° C | 64% | 1016.4 hPa | 0 mm | - | 1 W/m² | - |
| 1778069137 | 3.89° C | 66% | 1016.4 hPa | 0 mm | - | 0 W/m² | - |
* Rain latest hour (hover to see other rain measurements)
** Current wind speed in m/s (hover to see current wind gust speed)